Time;durP1;ratioP1;P1;durP2;ratioP2;P2;SDS_P1;SDS_P2;PMS_P1;PMS_P2;Temp;Humidity;BMP_temperature;BMP_pressure;BME280_temperature;BME280_humidity;BME280_pressure;Samples;Min_cycle;Max_cycle;Signal;HPM_P1;HPM_P2
2022/03/08 00:01:39;;;;;;;;;;;;;;;-0.40;100.00;102299.25;5033715;28;20254;-81
2022/03/08 00:04:06;;;;;;;;;;;;;;;-0.40;100.00;102295.75;5019358;28;19960;-82
2022/03/08 00:06:31;;;;;;;;;;;;;;;-0.42;100.00;102297.25;5021866;28;20497;-81
2022/03/08 00:08:57;;;;;;;;;;;;;;;-0.39;100.00;102294.97;5023376;28;20001;-81
2022/03/08 00:11:22;;;;;;;;;;;;;;;-0.44;100.00;102296.19;5019794;28;20334;-82
2022/03/08 00:13:51;;;;;;;;;;;;;;;-0.47;100.00;102293.28;5019924;28;20189;-82
2022/03/08 00:16:16;;;;;;;;;;;;;;;-0.54;100.00;102291.75;5014688;28;19967;-81
2022/03/08 00:18:44;;;;;;;;;;;;;;;-0.57;100.00;102281.97;5019104;28;20019;-81
2022/03/08 00:21:10;;;;;;;;;;;;;;;-0.51;100.00;102278.19;5019015;28;19952;-82
2022/03/08 00:23:36;;;;;;;;;;;;;;;-0.46;100.00;102280.50;5002140;28;20527;-81
2022/03/08 00:26:02;;;;;;;;;;;;;;;-0.41;100.00;102279.28;5016185;28;19975;-82
2022/03/08 00:28:47;;;;;;;;;;;;;;;-0.39;100.00;102274.28;5019136;28;19921;-82
2022/03/08 00:31:12;;;;;;;;;;;;;;;-0.40;100.00;102275.06;5019021;28;20290;-81
2022/03/08 00:33:37;;;;;;;;;;;;;;;-0.44;100.00;102275.50;5003125;28;19944;-81
2022/03/08 00:36:03;;;;;;;;;;;;;;;-0.45;100.00;102273.66;5018382;28;19921;-81
2022/03/08 00:38:28;;;;;;;;;;;;;;;-0.44;100.00;102276.38;5018800;28;19956;-81
2022/03/08 00:40:54;;;;;;;;;;;;;;;-0.43;100.00;102272.16;5015640;28;20016;-82
2022/03/08 00:43:27;;;;;;;;;;;;;;;-0.55;100.00;102271.78;5011600;28;20026;-81
2022/03/08 00:45:53;;;;;;;;;;;;;;;-0.56;100.00;102269.94;5033051;28;19917;-81
2022/03/08 00:48:18;;;;;;;;;;;;;;;-0.60;100.00;102268.72;5035960;28;20671;-82
2022/03/08 00:50:44;;;;;;;;;;;;;;;-0.58;100.00;102271.47;5017824;28;19916;-80
2022/03/08 00:53:14;;;;;;;;;;;;;;;-0.62;100.00;102265.06;5017542;28;19921;-82
2022/03/08 00:55:39;;;;;;;;;;;;;;;-0.62;100.00;102271.91;5018952;28;19921;-81
2022/03/08 00:58:05;;;;;;;;;;;;;;;-0.62;100.00;102259.91;5018360;28;20301;-80
2022/03/08 01:00:32;;;;;;;;;;;;;;;-0.60;100.00;102267.81;5039395;28;19968;-81
2022/03/08 01:03:01;;;;;;;;;;;;;;;-0.62;100.00;102254.72;5018391;28;19921;-81
2022/03/08 01:05:28;;;;;;;;;;;;;;;-0.58;100.00;102263.72;5018191;28;19921;-82
2022/03/08 01:07:58;;;;;;;;;;;;;;;-0.55;100.00;102261.44;5035849;28;19936;-81
2022/03/08 01:10:25;;;;;;;;;;;;;;;-0.54;100.00;102258.09;5018591;28;20409;-81
2022/03/08 01:12:53;;;;;;;;;;;;;;;-0.59;100.00;102264.47;5018053;28;19921;-81
2022/03/08 01:15:18;;;;;;;;;;;;;;;-0.58;100.00;102255.94;5051034;28;19929;-80
2022/03/08 01:17:44;;;;;;;;;;;;;;;-0.64;100.00;102256.22;5017960;28;19921;-81
2022/03/08 01:20:10;;;;;;;;;;;;;;;-0.71;100.00;102251.19;5018032;28;19925;-81
2022/03/08 01:22:40;;;;;;;;;;;;;;;-0.72;100.00;102258.00;5018291;28;19921;-81
2022/03/08 01:25:07;;;;;;;;;;;;;;;-0.76;100.00;102249.81;5051386;28;19948;-82
2022/03/08 01:27:33;;;;;;;;;;;;;;;-0.79;100.00;102250.41;5018285;28;19928;-80
2022/03/08 01:29:58;;;;;;;;;;;;;;;-0.84;100.00;102251.59;5017985;28;19925;-81
2022/03/08 01:32:26;;;;;;;;;;;;;;;-0.81;100.00;102251.91;5017826;28;19921;-80
2022/03/08 01:34:51;;;;;;;;;;;;;;;-0.92;100.00;102247.28;5017534;28;19921;-81
2022/03/08 01:37:20;;;;;;;;;;;;;;;-0.88;100.00;102256.28;5035456;28;19940;-80
2022/03/08 01:39:45;;;;;;;;;;;;;;;-0.88;100.00;102253.72;5018614;28;20010;-80
2022/03/08 01:42:12;;;;;;;;;;;;;;;-0.88;100.00;102241.69;5017018;28;19979;-80
2022/03/08 01:44:40;;;;;;;;;;;;;;;-0.92;100.00;102244.69;5017595;28;20385;-80
2022/03/08 01:47:06;;;;;;;;;;;;;;;-0.96;100.00;102245.16;5017874;28;20417;-81
2022/03/08 01:49:31;;;;;;;;;;;;;;;-0.94;100.00;102241.03;5017430;28;19960;-81
2022/03/08 01:51:59;;;;;;;;;;;;;;;-0.97;100.00;102235.53;5037009;28;19925;-80
2022/03/08 01:54:24;;;;;;;;;;;;;;;-0.98;100.00;102233.69;5020215;28;19921;-80
2022/03/08 01:56:49;;;;;;;;;;;;;;;-1.01;100.00;102230.78;5017539;28;19921;-81
2022/03/08 01:59:15;;;;;;;;;;;;;;;-1.00;100.00;102232.63;4998373;28;19961;-80
2022/03/08 02:01:48;;;;;;;;;;;;;;;-0.93;100.00;102227.38;5001182;28;19921;-81
2022/03/08 02:04:14;;;;;;;;;;;;;;;-0.92;100.00;102221.41;5017742;28;19921;-79
2022/03/08 02:06:39;;;;;;;;;;;;;;;-0.84;100.00;102211.88;5050387;28;19927;-81
2022/03/08 02:09:05;;;;;;;;;;;;;;;-0.80;100.00;102216.59;5034177;28;20696;-81
2022/03/08 02:11:31;;;;;;;;;;;;;;;-0.75;100.00;102213.72;5017347;28;19921;-80
2022/03/08 02:14:05;;;;;;;;;;;;;;;-0.69;100.00;102208.28;5034695;28;20346;-81
2022/03/08 02:16:31;;;;;;;;;;;;;;;-0.69;100.00;102207.38;5033781;28;20346;-81
2022/03/08 02:18:56;;;;;;;;;;;;;;;-0.73;100.00;102200.94;5017475;28;19921;-80
2022/03/08 02:21:21;;;;;;;;;;;;;;;-0.76;100.00;102195.50;5050792;28;19936;-82
2022/03/08 02:23:49;;;;;;;;;;;;;;;-0.65;100.00;102186.22;5017552;28;19921;-81
2022/03/08 02:26:14;;;;;;;;;;;;;;;-0.65;100.00;102194.91;5033942;28;20020;-81
2022/03/08 02:28:40;;;;;;;;;;;;;;;-0.66;100.00;102189.56;5017613;28;20004;-81
2022/03/08 02:31:06;;;;;;;;;;;;;;;-0.74;100.00;102187.09;5017272;28;19921;-81
2022/03/08 02:33:41;;;;;;;;;;;;;;;-0.72;100.00;102184.69;5017264;28;20377;-81
2022/03/08 02:36:14;;;;;;;;;;;;;;;-0.82;100.00;102188.00;5035036;28;19925;-80
2022/03/08 02:38:40;;;;;;;;;;;;;;;-0.88;100.00;102182.19;5017619;28;20269;-79
2022/03/08 02:41:06;;;;;;;;;;;;;;;-0.97;100.00;102178.66;5017603;28;19922;-81
2022/03/08 02:43:32;;;;;;;;;;;;;;;-0.99;100.00;102178.50;5036119;28;19922;-81
2022/03/08 02:45:57;;;;;;;;;;;;;;;-1.01;100.00;102174.84;5037454;28;19975;-80
2022/03/08 02:48:30;;;;;;;;;;;;;;;-1.01;100.00;102174.84;5021048;28;20281;-81
2022/03/08 02:50:55;;;;;;;;;;;;;;;-1.13;100.00;102169.31;5003809;28;20000;-81
2022/03/08 02:53:23;;;;;;;;;;;;;;;-1.06;100.00;102169.94;5001262;28;19980;-83
2022/03/08 02:55:48;;;;;;;;;;;;;;;-1.02;100.00;102166.94;5003498;28;19956;-79
2022/03/08 02:58:14;;;;;;;;;;;;;;;-1.00;100.00;102160.25;5020505;28;20582;-80
2022/03/08 03:00:39;;;;;;;;;;;;;;;-1.01;100.00;102161.91;5021056;28;19968;-81
2022/03/08 03:03:05;;;;;;;;;;;;;;;-1.03;100.00;102155.66;5021061;28;19921;-80
2022/03/08 03:05:31;;;;;;;;;;;;;;;-1.01;100.00;102154.16;5021301;28;19961;-81
2022/03/08 03:07:58;;;;;;;;;;;;;;;-1.06;100.00;102149.25;5004275;28;19925;-78
2022/03/08 03:10:23;;;;;;;;;;;;;;;-1.04;100.00;102161.59;5037960;28;19921;-81
2022/03/08 03:12:51;;;;;;;;;;;;;;;-1.12;100.00;102163.41;5019282;28;19967;-80
2022/03/08 03:15:18;;;;;;;;;;;;;;;-1.16;100.00;102148.31;5019910;28;19956;-81
2022/03/08 03:17:43;;;;;;;;;;;;;;;-1.20;100.00;102145.25;5020495;28;19981;-80
2022/03/08 03:20:09;;;;;;;;;;;;;;;-1.24;100.00;102153.44;5036856;28;19967;-81
2022/03/08 03:22:35;;;;;;;;;;;;;;;-1.33;100.00;102146.56;5057429;28;19966;-80
2022/03/08 03:25:01;;;;;;;;;;;;;;;-1.40;100.00;102143.16;5038565;28;20362;-81
2022/03/08 03:27:26;;;;;;;;;;;;;;;-1.42;100.00;102140.44;5019992;28;19921;-79
2022/03/08 03:29:51;;;;;;;;;;;;;;;-1.44;100.00;102134.19;5019980;28;20369;-81
2022/03/08 03:32:19;;;;;;;;;;;;;;;-1.46;100.00;102131.44;5019750;28;20353;-81
2022/03/08 03:34:45;;;;;;;;;;;;;;;-1.34;100.00;102126.63;5041089;28;19993;-81
2022/03/08 03:37:10;;;;;;;;;;;;;;;-1.28;100.00;102124.69;5042374;28;19924;-79
2022/03/08 03:39:36;;;;;;;;;;;;;;;-1.29;100.00;102124.53;5041323;28;19920;-81
2022/03/08 03:42:04;;;;;;;;;;;;;;;-1.31;100.00;102115.69;5039419;28;19928;-82
2022/03/08 03:44:29;;;;;;;;;;;;;;;-1.25;100.00;102115.44;5039979;28;20012;-81
2022/03/08 03:46:54;;;;;;;;;;;;;;;-1.32;100.00;102111.28;5057499;28;19971;-80
2022/03/08 03:49:20;;;;;;;;;;;;;;;-1.29;100.00;102119.34;5039227;28;20341;-80
2022/03/08 03:51:47;;;;;;;;;;;;;;;-1.25;100.00;102120.59;5037961;28;19921;-81
2022/03/08 03:54:12;;;;;;;;;;;;;;;-1.10;100.00;102120.50;5019680;28;19936;-80
2022/03/08 03:56:38;;;;;;;;;;;;;;;-1.13;100.00;102127.03;5019919;28;19925;-81
2022/03/08 03:59:03;;;;;;;;;;;;;;;-1.24;100.00;102127.59;5019684;28;19928;-80
2022/03/08 04:01:28;;;;;;;;;;;;;;;-1.25;100.00;102126.69;5019526;28;20368;-81
2022/03/08 04:03:53;;;;;;;;;;;;;;;-1.22;100.00;102127.00;5019971;28;20373;-80
2022/03/08 04:06:19;;;;;;;;;;;;;;;-1.30;100.00;102126.19;5019300;28;19921;-81
2022/03/08 04:08:45;;;;;;;;;;;;;;;-1.41;100.00;102125.81;5019479;28;19921;-81
2022/03/08 04:11:10;;;;;;;;;;;;;;;-1.53;100.00;102125.47;5036688;28;19921;-82
2022/03/08 04:13:36;;;;;;;;;;;;;;;-1.59;100.00;102125.75;5018858;28;19928;-82
2022/03/08 04:16:02;;;;;;;;;;;;;;;-1.51;100.00;102130.06;5036956;28;20266;-81
2022/03/08 04:18:29;;;;;;;;;;;;;;;-1.45;100.00;102117.75;5028552;28;19932;-80
2022/03/08 04:20:55;;;;;;;;;;;;;;;-1.40;100.00;102120.81;4999791;28;19929;-80
2022/03/08 04:23:22;;;;;;;;;;;;;;;-1.46;100.00;102123.69;5015543;28;19972;-81
2022/03/08 04:25:48;;;;;;;;;;;;;;;-1.40;100.00;102117.31;5015694;28;19971;-80
2022/03/08 04:28:13;;;;;;;;;;;;;;;-1.42;100.00;102118.84;4999456;28;20388;-80
2022/03/08 04:30:38;;;;;;;;;;;;;;;-1.48;100.00;102109.69;5002518;28;19943;-80
2022/03/08 04:33:03;;;;;;;;;;;;;;;-1.47;100.00;102118.38;5001348;28;20602;-79
2022/03/08 04:35:28;;;;;;;;;;;;;;;-1.57;100.00;102118.16;5015649;28;19922;-80
2022/03/08 04:37:54;;;;;;;;;;;;;;;-1.57;100.00;102107.81;5034109;28;19925;-81
2022/03/08 04:40:19;;;;;;;;;;;;;;;-1.61;100.00;102114.34;5038434;28;19921;-80
2022/03/08 04:42:46;;;;;;;;;;;;;;;-1.71;100.00;102111.53;5038429;28;20247;-81
2022/03/08 04:45:12;;;;;;;;;;;;;;;-1.78;100.00;102111.66;5038751;28;20332;-81
2022/03/08 04:47:38;;;;;;;;;;;;;;;-1.78;100.00;102111.66;5038462;28;19925;-81
2022/03/08 04:50:04;;;;;;;;;;;;;;;-1.79;100.00;102109.81;5036804;28;19927;-81
2022/03/08 04:52:29;;;;;;;;;;;;;;;-1.88;100.00;102105.53;5018275;28;19929;-80
2022/03/08 04:54:54;;;;;;;;;;;;;;;-1.96;100.00;102102.88;5018837;28;20402;-82
2022/03/08 04:57:20;;;;;;;;;;;;;;;-2.01;100.00;102102.38;5018188;28;20006;-80
2022/03/08 04:59:45;;;;;;;;;;;;;;;-1.98;100.00;102090.72;5051867;28;20281;-80
2022/03/08 05:02:10;;;;;;;;;;;;;;;-1.93;100.00;102096.34;5035133;28;20354;-81
2022/03/08 05:04:36;;;;;;;;;;;;;;;-1.87;100.00;102094.41;5017897;28;20366;-81
2022/03/08 05:07:01;;;;;;;;;;;;;;;-1.89;100.00;102090.78;5035223;28;19971;-82
2022/03/08 05:09:26;;;;;;;;;;;;;;;-1.85;100.00;102087.78;5017122;28;20003;-81
2022/03/08 05:11:55;;;;;;;;;;;;;;;-1.82;100.00;102098.44;5018112;28;19921;-82
2022/03/08 05:14:20;;;;;;;;;;;;;;;-1.85;100.00;102102.34;5017898;28;19932;-80
2022/03/08 05:16:45;;;;;;;;;;;;;;;-1.89;100.00;102105.38;5017815;28;20349;-80
2022/03/08 05:19:10;;;;;;;;;;;;;;;-1.89;100.00;102100.19;5018245;28;19928;-81
2022/03/08 05:21:36;;;;;;;;;;;;;;;-1.88;100.00;102097.78;5018447;28;19932;-82
2022/03/08 05:24:01;;;;;;;;;;;;;;;-1.87;100.00;102099.59;5011061;28;19968;-81
2022/03/08 05:26:26;;;;;;;;;;;;;;;-1.87;100.00;102094.41;5018576;28;20328;-81
2022/03/08 05:28:51;;;;;;;;;;;;;;;-1.85;100.00;102090.34;5015021;28;20342;-81
2022/03/08 05:31:16;;;;;;;;;;;;;;;-1.88;100.00;102090.03;5024426;28;19917;-79
2022/03/08 05:33:43;;;;;;;;;;;;;;;-1.76;100.00;102089.50;5017133;28;19928;-80
2022/03/08 05:36:09;;;;;;;;;;;;;;;-1.73;100.00;102085.53;5035008;28;19975;-81
2022/03/08 05:38:34;;;;;;;;;;;;;;;-1.71;100.00;102086.66;5034428;28;19921;-82
2022/03/08 05:41:00;;;;;;;;;;;;;;;-1.67;100.00;102082.69;5017802;28;19921;-81
2022/03/08 05:43:25;;;;;;;;;;;;;;;-1.72;100.00;102078.72;5017874;28;19921;-79
2022/03/08 05:45:51;;;;;;;;;;;;;;;-1.72;100.00;102078.72;5017690;28;19921;-81
2022/03/08 05:48:16;;;;;;;;;;;;;;;-1.72;100.00;102064.16;5017710;28;19926;-80
2022/03/08 05:50:41;;;;;;;;;;;;;;;-1.67;100.00;102067.22;5027171;28;20257;-81
2022/03/08 05:53:08;;;;;;;;;;;;;;;-1.62;100.00;102060.84;5036839;28;19921;-82
2022/03/08 05:55:34;;;;;;;;;;;;;;;-1.50;100.00;102072.44;5037274;28;20589;-82
2022/03/08 05:57:59;;;;;;;;;;;;;;;-1.45;100.00;102070.34;5037378;28;19923;-81
2022/03/08 06:00:25;;;;;;;;;;;;;;;-1.49;100.00;102069.13;5037097;28;19928;-81
2022/03/08 06:03:02;;;;;;;;;;;;;;;-1.45;100.00;102063.50;5031082;28;19925;-81
2022/03/08 06:05:27;;;;;;;;;;;;;;;-1.45;100.00;102066.06;5013106;28;19929;-81
2022/03/08 06:07:52;;;;;;;;;;;;;;;-1.49;100.00;102057.84;5029075;28;19921;-81
2022/03/08 06:10:18;;;;;;;;;;;;;;;-1.47;100.00;102058.94;5017429;28;19925;-80
2022/03/08 06:12:44;;;;;;;;;;;;;;;-1.48;100.00;102060.59;5017020;28;20592;-79
2022/03/08 06:15:10;;;;;;;;;;;;;;;-1.46;100.00;102053.94;5039458;28;20350;-81
2022/03/08 06:17:35;;;;;;;;;;;;;;;-1.48;100.00;102060.59;5029993;28;19922;-79
2022/03/08 06:20:01;;;;;;;;;;;;;;;-1.48;100.00;102062.28;5019117;28;20357;-80
2022/03/08 06:22:28;;;;;;;;;;;;;;;-1.41;100.00;102071.56;5036915;28;19927;-82
2022/03/08 06:24:53;;;;;;;;;;;;;;;-1.45;100.00;102078.09;5054436;28;19976;-82
2022/03/08 06:27:19;;;;;;;;;;;;;;;-1.44;100.00;102077.34;5017971;28;19924;-80
2022/03/08 06:29:47;;;;;;;;;;;;;;;-1.46;100.00;102073.66;5050639;28;20415;-82
2022/03/08 06:32:17;;;;;;;;;;;;;;;-1.39;100.00;102070.06;5032841;28;20020;-79
2022/03/08 06:34:51;;;;;;;;;;;;;;;-1.21;100.00;102077.16;5034210;28;20404;-80
2022/03/08 06:37:18;;;;;;;;;;;;;;;-1.16;100.00;102075.03;5017389;28;19932;-82
2022/03/08 06:39:43;;;;;;;;;;;;;;;-1.10;100.00;102080.81;5017278;28;19963;-78
2022/03/08 06:42:09;;;;;;;;;;;;;;;-0.99;100.00;102082.81;5022837;28;20012;-78
2022/03/08 06:44:35;;;;;;;;;;;;;;;-0.89;100.00;102074.31;5017151;28;19928;-79
2022/03/08 06:47:00;;;;;;;;;;;;;;;-0.76;100.00;102081.69;5030513;28;19921;-77
2022/03/08 06:49:26;;;;;;;;;;;;;;;-0.59;100.00;102094.63;5054391;28;19931;-78
2022/03/08 06:51:52;;;;;;;;;;;;;;;-0.45;100.00;102089.91;5007313;28;20032;-77
2022/03/08 06:54:19;;;;;;;;;;;;;;;-0.38;100.00;102088.06;5035438;28;19925;-79
2022/03/08 06:56:46;;;;;;;;;;;;;;;-0.28;100.00;102089.00;5048985;28;19934;-81
2022/03/08 06:59:12;;;;;;;;;;;;;;;-0.08;100.00;102090.97;5048624;28;20346;-79
2022/03/08 07:01:57;;;;;;;;;;;;;;;-0.10;100.00;102085.63;5036200;28;19921;-79
2022/03/08 07:04:27;;;;;;;;;;;;;;;-0.15;100.00;102089.47;5048337;28;19964;-79
2022/03/08 07:07:10;;;;;;;;;;;;;;;-0.30;100.00;102091.44;5027894;28;19971;-80
2022/03/08 07:10:01;;;;;;;;;;;;;;;-0.20;100.00;102083.81;5030476;28;19979;-80
2022/03/08 07:12:28;;;;;;;;;;;;;;;-0.03;100.00;102080.31;5037417;28;19920;-80
2022/03/08 07:15:11;;;;;;;;;;;;;;;0.10;100.00;102087.59;5032985;28;20020;-80
2022/03/08 07:17:36;;;;;;;;;;;;;;;0.10;100.00;102085.00;5030782;28;19936;-80
2022/03/08 07:20:13;;;;;;;;;;;;;;;0.21;100.00;102082.56;5031066;28;19925;-81
2022/03/08 07:23:02;;;;;;;;;;;;;;;0.13;100.00;102074.03;5015190;28;20324;-80
2022/03/08 07:25:29;;;;;;;;;;;;;;;0.33;100.00;102083.75;5032621;28;19928;-80
2022/03/08 07:28:04;;;;;;;;;;;;;;;0.61;100.00;102079.53;5046966;28;20637;-82
2022/03/08 07:30:51;;;;;;;;;;;;;;;0.83;100.00;102077.28;5030520;28;20007;-82
2022/03/08 07:33:17;;;;;;;;;;;;;;;1.12;100.00;102083.38;5035966;28;19925;-82
2022/03/08 07:35:42;;;;;;;;;;;;;;;1.26;100.00;102075.22;5018588;28;20376;-80
2022/03/08 07:38:08;;;;;;;;;;;;;;;1.14;100.00;102080.19;5018141;28;19948;-81
2022/03/08 07:40:34;;;;;;;;;;;;;;;1.33;100.00;102082.78;5018814;28;19924;-82
2022/03/08 07:43:02;;;;;;;;;;;;;;;1.41;100.00;102080.91;5035278;28;19925;-81
2022/03/08 07:45:29;;;;;;;;;;;;;;;1.57;100.00;102085.81;5037037;28;19991;-82
2022/03/08 07:47:55;;;;;;;;;;;;;;;1.59;100.00;102076.50;5036298;28;19932;-80
2022/03/08 07:50:22;;;;;;;;;;;;;;;1.78;100.00;102090.38;5036922;28;19921;-81
2022/03/08 07:52:59;;;;;;;;;;;;;;;1.84;100.00;102091.75;5019346;28;19944;-82
2022/03/08 07:55:25;;;;;;;;;;;;;;;1.93;100.00;102085.69;5037451;28;19929;-81
2022/03/08 07:57:53;;;;;;;;;;;;;;;1.86;100.00;102087.59;5036182;28;19929;-82
2022/03/08 08:00:21;;;;;;;;;;;;;;;1.89;100.00;102098.25;5035730;28;19983;-79
2022/03/08 08:03:09;;;;;;;;;;;;;;;2.07;100.00;102107.72;5034456;28;19925;-81
2022/03/08 08:05:35;;;;;;;;;;;;;;;2.44;100.00;102105.81;5025298;28;19921;-81
2022/03/08 08:08:04;;;;;;;;;;;;;;;2.66;100.00;102110.31;5052922;28;19925;-81
2022/03/08 08:10:36;;;;;;;;;;;;;;;2.88;100.00;102113.09;5019112;28;19975;-82
2022/03/08 08:13:11;;;;;;;;;;;;;;;3.14;100.00;102120.56;5051946;28;20395;-82
2022/03/08 08:15:39;;;;;;;;;;;;;;;3.29;100.00;102120.06;5019376;28;19925;-80
2022/03/08 08:18:04;;;;;;;;;;;;;;;3.21;100.00;102122.91;5035338;28;19925;-82
2022/03/08 08:20:29;;;;;;;;;;;;;;;3.29;100.00;102120.94;5018970;28;20346;-83
2022/03/08 08:23:03;;;;;;;;;;;;;;;3.20;100.00;102121.09;5017847;28;19995;-82
2022/03/08 08:25:29;;;;;;;;;;;;;;;3.64;100.00;102116.94;5019145;28;19932;-80
2022/03/08 08:27:54;;;;;;;;;;;;;;;3.71;100.00;102116.66;5018924;28;19921;-82
2022/03/08 08:30:22;;;;;;;;;;;;;;;3.71;100.00;102119.25;5034960;28;19925;-81
2022/03/08 08:32:50;;;;;;;;;;;;;;;4.05;100.00;102127.28;5036901;28;19921;-81
2022/03/08 08:35:21;;;;;;;;;;;;;;;4.36;100.00;102124.59;5036445;28;19955;-80
2022/03/08 08:37:47;;;;;;;;;;;;;;;3.94;100.00;102122.06;5036801;28;20353;-79
2022/03/08 08:40:15;;;;;;;;;;;;;;;4.09;100.00;102118.94;5036302;28;19921;-79
2022/03/08 08:42:52;;;;;;;;;;;;;;;4.17;100.00;102115.25;5035407;28;19921;-81
2022/03/08 08:45:18;;;;;;;;;;;;;;;4.14;100.00;102118.50;5017736;28;19971;-80
2022/03/08 08:47:44;;;;;;;;;;;;;;;4.26;100.00;102117.72;5051837;28;19936;-82
2022/03/08 08:50:09;;;;;;;;;;;;;;;4.14;100.00;102105.47;5018465;28;19965;-80
2022/03/08 08:52:39;;;;;;;;;;;;;;;4.20;100.00;102105.09;5034915;28;19930;-80
2022/03/08 08:55:08;;;;;;;;;;;;;;;3.96;100.00;102106.56;5036079;28;19925;-79
2022/03/08 08:57:37;;;;;;;;;;;;;;;4.21;100.00;102103.38;5023849;28;19921;-81
2022/03/08 09:00:06;;;;;;;;;;;;;;;4.27;100.00;102098.66;5036692;28;19921;-80
2022/03/08 09:02:40;;;;;;;;;;;;;;;4.14;100.00;102097.66;5051317;28;19952;-80
2022/03/08 09:05:12;;;;;;;;;;;;;;;4.24;100.00;102093.19;5035679;28;19925;-83
2022/03/08 09:07:39;;;;;;;;;;;;;;;4.06;100.00;102092.63;5035116;28;19948;-82
2022/03/08 09:10:06;;;;;;;;;;;;;;;3.87;100.00;102079.75;5031918;28;19921;-80
2022/03/08 09:12:32;;;;;;;;;;;;;;;3.72;100.00;102080.31;5034479;28;19960;-82
2022/03/08 09:15:01;;;;;;;;;;;;;;;3.72;100.00;102080.31;5018159;28;19967;-80
2022/03/08 09:17:32;;;;;;;;;;;;;;;3.76;100.00;102082.38;5034243;28;19971;-80
2022/03/08 09:19:58;;;;;;;;;;;;;;;3.78;100.00;102090.34;5017805;28;20308;-80
2022/03/08 09:22:24;;;;;;;;;;;;;;;3.97;100.00;102084.03;5033680;28;19925;-82
2022/03/08 09:24:51;;;;;;;;;;;;;;;4.01;100.00;102076.59;5017493;28;19929;-81
2022/03/08 09:27:28;;;;;;;;;;;;;;;4.03;100.00;102082.84;5035595;28;19921;-82
2022/03/08 09:30:01;;;;;;;;;;;;;;;3.97;100.00;102078.84;5035525;28;19921;-82
2022/03/08 09:32:31;;;;;;;;;;;;;;;4.09;100.00;102078.13;5049841;28;20012;-82
2022/03/08 09:35:01;;;;;;;;;;;;;;;4.19;100.00;102081.50;5016358;28;19921;-82
2022/03/08 09:37:35;;;;;;;;;;;;;;;4.28;100.00;102082.25;5017328;28;19969;-83
2022/03/08 09:40:06;;;;;;;;;;;;;;;4.27;100.00;102093.44;5047950;28;20251;-81
2022/03/08 09:42:53;;;;;;;;;;;;;;;4.27;100.00;102077.78;5035151;28;19928;-81
2022/03/08 09:45:22;;;;;;;;;;;;;;;4.28;100.00;102077.91;5032263;28;19932;-79
2022/03/08 09:47:54;;;;;;;;;;;;;;;4.55;100.00;102075.69;5017998;28;19962;-81
2022/03/08 09:50:30;;;;;;;;;;;;;;;4.45;100.00;102062.72;5035897;28;19921;-80
2022/03/08 09:53:17;;;;;;;;;;;;;;;4.49;100.00;102067.41;5017556;28;20004;-81
2022/03/08 09:55:46;;;;;;;;;;;;;;;4.56;100.00;102071.41;5033847;28;20357;-79
2022/03/08 09:58:14;;;;;;;;;;;;;;;4.53;100.00;102066.84;5032618;28;20315;-80
2022/03/08 10:00:41;;;;;;;;;;;;;;;4.61;100.00;102067.47;5049372;28;19933;-81
2022/03/08 10:03:22;;;;;;;;;;;;;;;4.61;100.00;102057.94;5015987;28;20415;-81
2022/03/08 10:05:48;;;;;;;;;;;;;;;4.82;100.00;102060.44;5033549;28;19932;-81
2022/03/08 10:08:23;;;;;;;;;;;;;;;4.93;100.00;102051.75;5034100;28;19921;-81
2022/03/08 10:10:52;;;;;;;;;;;;;;;4.89;100.00;102054.88;5016876;28;20313;-79
2022/03/08 10:13:25;;;;;;;;;;;;;;;5.02;100.00;102044.63;5016553;28;19940;-80
2022/03/08 10:16:42;;;;;;;;;;;;;;;5.10;100.00;102046.94;5031258;28;19961;-80
2022/03/08 10:19:10;;;;;;;;;;;;;;;5.36;100.00;102041.06;5034250;28;20249;-79
2022/03/08 10:21:37;;;;;;;;;;;;;;;5.28;100.00;102042.19;5016394;28;19921;-82
2022/03/08 10:24:04;;;;;;;;;;;;;;;5.50;100.00;102045.66;5016861;28;19921;-82
2022/03/08 10:26:29;;;;;;;;;;;;;;;5.57;100.00;102047.00;5017067;28;19936;-78
2022/03/08 10:28:56;;;;;;;;;;;;;;;5.72;100.00;102048.16;5017442;28;19921;-78
2022/03/08 10:31:22;;;;;;;;;;;;;;;5.76;100.00;102038.84;5016800;28;20011;-80
2022/03/08 10:33:49;;;;;;;;;;;;;;;5.88;100.00;102038.84;5016707;28;19952;-79
2022/03/08 10:36:17;;;;;;;;;;;;;;;5.72;100.00;102037.72;5033934;28;19921;-79
2022/03/08 10:39:01;;;;;;;;;;;;;;;5.68;100.00;102029.53;5016804;28;20000;-82
2022/03/08 10:41:26;;;;;;;;;;;;;;;5.78;100.00;102032.03;5016714;28;19927;-81
2022/03/08 10:43:51;;;;;;;;;;;;;;;5.95;100.00;102025.44;5018970;28;19925;-82
2022/03/08 10:46:17;;;;;;;;;;;;;;;6.01;100.00;102020.69;5034456;28;20009;-80
2022/03/08 10:48:42;;;;;;;;;;;;;;;6.05;100.00;102017.50;5018323;28;20364;-79
2022/03/08 10:51:15;;;;;;;;;;;;;;;6.08;100.00;102017.72;5033607;28;19951;-80
2022/03/08 10:54:01;;;;;;;;;;;;;;;5.99;100.00;102013.53;5027485;28;20080;-80
2022/03/08 10:56:31;;;;;;;;;;;;;;;6.17;100.00;102012.25;5016617;28;19990;-81
2022/03/08 10:59:00;;;;;;;;;;;;;;;6.30;100.00;102003.56;5034145;28;19917;-81
2022/03/08 11:01:27;;;;;;;;;;;;;;;6.31;100.00;102004.47;5033320;28;19928;-81
2022/03/08 11:04:02;;;;;;;;;;;;;;;6.50;100.00;102004.09;5034436;28;19928;-81
2022/03/08 11:06:29;;;;;;;;;;;;;;;6.60;100.00;102007.47;5029907;28;20082;-79
2022/03/08 11:08:56;;;;;;;;;;;;;;;6.54;100.00;102006.13;5036590;28;19925;-82
2022/03/08 11:11:26;;;;;;;;;;;;;;;6.82;100.00;102007.25;5053066;28;19983;-83
2022/03/08 11:14:18;;;;;;;;;;;;;;;6.95;100.00;102002.88;5037214;28;19979;-82
2022/03/08 11:17:04;;;;;;;;;;;;;;;6.91;100.00;102000.84;5037989;28;20003;-82
2022/03/08 11:19:33;;;;;;;;;;;;;;;6.84;100.00;101994.28;5019760;28;20269;-80
2022/03/08 11:22:05;;;;;;;;;;;;;;;7.02;100.00;101994.63;5036080;28;19929;-81
2022/03/08 11:24:31;;;;;;;;;;;;;;;7.17;100.00;101994.78;5018446;28;20242;-79
2022/03/08 11:27:03;;;;;;;;;;;;;;;7.04;100.00;101993.03;5019981;28;20016;-78
2022/03/08 11:29:40;;;;;;;;;;;;;;;7.10;100.00;101987.28;5020449;28;19925;-81
2022/03/08 11:32:19;;;;;;;;;;;;;;;7.25;100.00;101985.72;5038258;28;19988;-79
2022/03/08 11:34:45;;;;;;;;;;;;;;;7.13;100.00;101983.19;5024617;28;19960;-79
2022/03/08 11:37:17;;;;;;;;;;;;;;;7.12;100.00;101975.22;5023562;28;19921;-82
2022/03/08 11:39:43;;;;;;;;;;;;;;;7.22;100.00;101977.66;5020019;28;19925;-82
2022/03/08 11:42:32;;;;;;;;;;;;;;;7.34;100.00;101980.19;5019312;28;19963;-79
2022/03/08 11:45:06;;;;;;;;;;;;;;;7.54;100.00;101979.81;5019495;28;20016;-83
2022/03/08 11:47:55;;;;;;;;;;;;;;;7.40;100.00;101982.34;5019636;28;20101;-80
2022/03/08 11:50:21;;;;;;;;;;;;;;;7.52;100.00;101968.31;5031896;28;19921;-84
2022/03/08 11:52:52;;;;;;;;;;;;;;;7.54;100.00;101971.03;5020494;28;19921;-84
2022/03/08 11:55:23;;;;;;;;;;;;;;;7.72;100.00;101968.72;5052806;28;19932;-84
2022/03/08 11:57:49;;;;;;;;;;;;;;;7.90;100.00;101956.78;5031779;28;19967;-81
2022/03/08 12:00:14;;;;;;;;;;;;;;;7.91;100.00;101958.63;5039274;28;19935;-84
2022/03/08 12:02:44;;;;;;;;;;;;;;;7.71;100.00;101974.78;5030833;28;20308;-82
2022/03/08 12:05:30;;;;;;;;;;;;;;;7.80;100.00;101964.91;5007758;28;19921;-84
2022/03/08 12:07:55;;;;;;;;;;;;;;;7.85;100.00;101955.59;5018483;28;19925;-80
2022/03/08 12:10:25;;;;;;;;;;;;;;;7.83;100.00;101954.59;5034802;28;19920;-83
2022/03/08 12:13:00;;;;;;;;;;;;;;;7.87;100.00;101956.59;5048186;28;21538;-81
2022/03/08 12:15:25;;;;;;;;;;;;;;;7.86;100.00;101957.44;5052379;28;19925;-82
2022/03/08 12:18:09;;;;;;;;;;;;;;;7.91;100.00;101969.09;5018800;28;19929;-80
2022/03/08 12:20:34;;;;;;;;;;;;;;;7.96;100.00;101963.25;5052228;28;19960;-80
2022/03/08 12:23:19;;;;;;;;;;;;;;;7.75;100.00;101966.28;5035888;28;19986;-80
2022/03/08 12:26:04;;;;;;;;;;;;;;;7.82;100.00;101965.00;5053358;28;19967;-79
2022/03/08 12:28:48;;;;;;;;;;;;;;;7.76;100.00;101959.34;5022252;28;19921;-81
2022/03/08 12:31:14;;;;;;;;;;;;;;;7.87;100.00;101940.84;5051883;28;19928;-83
2022/03/08 12:34:01;;;;;;;;;;;;;;;8.00;100.00;101932.09;5036398;28;19921;-81
2022/03/08 12:36:27;;;;;;;;;;;;;;;8.17;100.00;101934.84;5018789;28;19967;-80
2022/03/08 12:38:52;;;;;;;;;;;;;;;8.43;100.00;101933.84;5036069;28;20011;-82